Time;durP1;ratioP1;P1;durP2;ratioP2;P2;SDS_P1;SDS_P2;PMS_P1;PMS_P2;Temp;Humidity;BMP_temperature;BMP_pressure;BME280_temperature;BME280_humidity;BME280_pressure;Samples;Min_cycle;Max_cycle;Signal;HPM_P1;HPM_P2
2023/05/16 00:00:24;;;;;;;24.52;3.00;;;;;;;;;;6221712;23;20032;-90
2023/05/16 00:02:57;;;;;;;28.30;4.15;;;;;;;;;;6196433;23;20012;-90
2023/05/16 00:05:23;;;;;;;13.38;2.80;;;;;;;;;;6195987;23;20370;-90
2023/05/16 00:07:49;;;;;;;24.85;2.83;;;;;;;;;;6195762;23;20008;-91
2023/05/16 00:10:15;;;;;;;15.68;3.33;;;;;;;;;;6194706;23;20354;-89
2023/05/16 00:12:43;;;;;;;28.67;4.32;;;;;;;;;;6195317;23;20031;-89
2023/05/16 00:15:13;;;;;;;21.25;2.58;;;;;;;;;;6221099;23;20004;-89
2023/05/16 00:17:39;;;;;;;17.90;3.38;;;;;;;;;;6195619;23;20092;-89
2023/05/16 00:20:09;;;;;;;21.55;2.90;;;;;;;;;;6197205;23;20012;-89
2023/05/16 00:22:36;;;;;;;20.35;3.08;;;;;;;;;;6220077;23;20035;-90
2023/05/16 00:25:03;;;;;;;14.77;2.40;;;;;;;;;;6195567;23;20023;-90
2023/05/16 00:27:29;;;;;;;11.70;2.63;;;;;;;;;;6217516;23;20524;-90
2023/05/16 00:29:55;;;;;;;25.02;2.65;;;;;;;;;;6193942;23;20439;-89
2023/05/16 00:32:22;;;;;;;25.40;2.80;;;;;;;;;;6217765;23;20019;-89
2023/05/16 00:34:49;;;;;;;22.25;2.58;;;;;;;;;;6194090;23;20060;-89
2023/05/16 00:37:15;;;;;;;17.92;2.53;;;;;;;;;;6194628;23;20039;-90
2023/05/16 00:39:41;;;;;;;16.55;2.17;;;;;;;;;;6197764;23;20072;-90
2023/05/16 00:42:10;;;;;;;20.67;2.75;;;;;;;;;;6197796;23;20498;-89
2023/05/16 00:44:39;;;;;;;18.05;2.85;;;;;;;;;;6198574;23;20012;-90
2023/05/16 00:47:05;;;;;;;9.32;2.33;;;;;;;;;;6221591;23;20042;-90
2023/05/16 00:49:31;;;;;;;16.80;2.80;;;;;;;;;;6215745;22;20021;-89
2023/05/16 00:51:58;;;;;;;18.77;2.47;;;;;;;;;;6191385;23;20012;-89
2023/05/16 00:54:28;;;;;;;22.55;2.58;;;;;;;;;;6195037;23;20000;-90
2023/05/16 00:56:56;;;;;;;22.63;2.78;;;;;;;;;;6193842;23;20004;-89
2023/05/16 00:59:26;;;;;;;19.40;1.98;;;;;;;;;;6194644;23;20039;-90
2023/05/16 01:01:52;;;;;;;13.45;2.53;;;;;;;;;;6172296;23;20013;-90
2023/05/16 01:04:19;;;;;;;19.10;3.63;;;;;;;;;;6220486;23;20019;-88
2023/05/16 01:06:45;;;;;;;25.45;3.33;;;;;;;;;;6192832;23;20009;-90
2023/05/16 01:09:13;;;;;;;19.63;2.83;;;;;;;;;;6193113;23;20324;-90
2023/05/16 01:11:45;;;;;;;13.05;1.88;;;;;;;;;;6165814;23;20032;-90
2023/05/16 01:14:24;;;;;;;19.27;2.72;;;;;;;;;;6191429;23;20043;-89
2023/05/16 01:17:16;;;;;;;15.32;2.03;;;;;;;;;;6188448;23;20100;-89
2023/05/16 01:20:01;;;;;;;17.95;2.10;;;;;;;;;;6189298;23;20422;-89
2023/05/16 01:22:50;;;;;;;15.02;2.25;;;;;;;;;;6189145;23;20021;-89
2023/05/16 01:25:35;;;;;;;16.67;2.42;;;;;;;;;;6189866;23;20012;-88
2023/05/16 01:28:06;;;;;;;13.68;2.30;;;;;;;;;;6191301;23;20052;-88
2023/05/16 01:30:34;;;;;;;16.48;2.33;;;;;;;;;;6167288;23;20019;-89
2023/05/16 01:33:00;;;;;;;17.38;2.30;;;;;;;;;;6193623;23;20024;-89
2023/05/16 01:35:29;;;;;;;20.10;2.60;;;;;;;;;;6166953;23;20004;-89
2023/05/16 01:38:04;;;;;;;21.65;2.65;;;;;;;;;;6191961;23;20082;-89
2023/05/16 01:40:40;;;;;;;18.33;2.20;;;;;;;;;;6192581;23;20039;-89
2023/05/16 01:43:10;;;;;;;11.52;1.85;;;;;;;;;;6191799;23;20009;-89
2023/05/16 01:45:43;;;;;;;17.38;2.92;;;;;;;;;;6191438;23;20012;-88
2023/05/16 01:48:16;;;;;;;16.38;2.90;;;;;;;;;;6192336;23;20012;-89
2023/05/16 01:50:46;;;;;;;20.65;2.50;;;;;;;;;;6193665;22;20047;-89
2023/05/16 01:53:15;;;;;;;13.05;2.22;;;;;;;;;;6192283;23;20012;-89
2023/05/16 01:55:48;;;;;;;16.05;2.55;;;;;;;;;;6192394;23;20454;-89
2023/05/16 01:58:15;;;;;;;18.90;1.92;;;;;;;;;;6169059;23;20439;-89
2023/05/16 02:00:41;;;;;;;21.63;2.70;;;;;;;;;;6195285;23;20068;-89
2023/05/16 02:03:11;;;;;;;17.88;2.75;;;;;;;;;;6196100;23;20347;-89
2023/05/16 02:05:37;;;;;;;15.55;2.97;;;;;;;;;;6169672;23;20024;-89
2023/05/16 02:08:04;;;;;;;13.20;2.30;;;;;;;;;;6171016;23;20105;-88
2023/05/16 02:10:31;;;;;;;34.97;3.20;;;;;;;;;;6194271;23;20032;-88
2023/05/16 02:12:59;;;;;;;19.92;2.42;;;;;;;;;;6196928;23;20059;-89
2023/05/16 02:15:26;;;;;;;18.30;2.10;;;;;;;;;;6195258;23;20043;-89
2023/05/16 02:17:54;;;;;;;14.75;2.40;;;;;;;;;;6194355;23;20119;-89
2023/05/16 02:20:20;;;;;;;12.82;2.55;;;;;;;;;;6195043;23;20004;-88
2023/05/16 02:22:48;;;;;;;18.40;2.38;;;;;;;;;;6168995;23;20083;-88
2023/05/16 02:25:15;;;;;;;20.85;2.72;;;;;;;;;;6221431;23;20001;-89
2023/05/16 02:27:44;;;;;;;12.00;2.40;;;;;;;;;;6168302;23;20095;-89
2023/05/16 02:30:11;;;;;;;14.45;2.08;;;;;;;;;;6193362;23;20012;-88
2023/05/16 02:32:38;;;;;;;16.40;2.70;;;;;;;;;;6195601;23;20012;-89
2023/05/16 02:35:06;;;;;;;18.42;3.28;;;;;;;;;;6194221;23;20008;-88
2023/05/16 02:37:33;;;;;;;17.73;2.25;;;;;;;;;;6221800;23;20454;-87
2023/05/16 02:39:59;;;;;;;16.50;2.60;;;;;;;;;;6195319;23;20028;-89
2023/05/16 02:42:26;;;;;;;27.25;2.83;;;;;;;;;;6170325;23;20017;-88
2023/05/16 02:45:01;;;;;;;23.88;2.85;;;;;;;;;;6169338;23;20314;-88
2023/05/16 02:47:28;;;;;;;18.48;2.88;;;;;;;;;;6170294;23;20509;-88
2023/05/16 02:49:55;;;;;;;27.63;2.88;;;;;;;;;;6197865;22;20028;-89
2023/05/16 02:52:21;;;;;;;8.43;2.05;;;;;;;;;;6194713;23;20008;-89
2023/05/16 02:54:48;;;;;;;17.88;2.90;;;;;;;;;;6194821;23;20098;-89
2023/05/16 02:57:20;;;;;;;17.17;3.05;;;;;;;;;;6194573;23;20103;-88
2023/05/16 02:59:48;;;;;;;17.42;2.25;;;;;;;;;;6168048;23;20043;-89
2023/05/16 03:02:14;;;;;;;9.38;2.45;;;;;;;;;;6170294;23;20016;-88
2023/05/16 03:04:40;;;;;;;12.00;2.42;;;;;;;;;;6194070;23;20016;-88
2023/05/16 03:07:06;;;;;;;13.35;2.20;;;;;;;;;;6192874;23;20004;-90
2023/05/16 03:09:33;;;;;;;16.25;2.78;;;;;;;;;;6168307;23;20103;-89
2023/05/16 03:11:59;;;;;;;17.67;2.35;;;;;;;;;;6195138;23;20378;-89
2023/05/16 03:14:25;;;;;;;7.63;1.73;;;;;;;;;;6194096;23;20013;-88
2023/05/16 03:16:52;;;;;;;15.88;2.58;;;;;;;;;;6192738;23;20008;-89
2023/05/16 03:19:18;;;;;;;19.75;2.45;;;;;;;;;;6168479;23;20227;-89
2023/05/16 03:21:50;;;;;;;20.17;2.50;;;;;;;;;;6168037;23;20133;-89
2023/05/16 03:24:16;;;;;;;17.83;2.33;;;;;;;;;;6194507;23;20040;-88
2023/05/16 03:26:42;;;;;;;12.68;2.50;;;;;;;;;;6168574;23;20455;-87
2023/05/16 03:29:09;;;;;;;8.13;2.13;;;;;;;;;;6194538;23;20340;-88
2023/05/16 03:31:35;;;;;;;14.68;2.38;;;;;;;;;;6192297;23;20022;-87
2023/05/16 03:34:02;;;;;;;14.32;2.42;;;;;;;;;;6193922;23;20000;-89
2023/05/16 03:36:32;;;;;;;14.40;2.65;;;;;;;;;;6193934;23;20073;-89
2023/05/16 03:39:05;;;;;;;9.23;3.00;;;;;;;;;;6170085;23;20020;-89
2023/05/16 03:41:31;;;;;;;14.02;2.75;;;;;;;;;;6168679;23;20034;-89
2023/05/16 03:43:57;;;;;;;11.25;2.50;;;;;;;;;;6194387;23;20020;-88
2023/05/16 03:46:23;;;;;;;17.55;2.30;;;;;;;;;;6169438;23;20378;-88
2023/05/16 03:48:51;;;;;;;12.18;1.95;;;;;;;;;;6193854;23;20005;-88
2023/05/16 03:51:24;;;;;;;14.02;2.20;;;;;;;;;;6178738;22;20031;-87
2023/05/16 03:53:57;;;;;;;12.57;1.85;;;;;;;;;;6170092;23;20039;-89
2023/05/16 03:56:24;;;;;;;7.30;2.40;;;;;;;;;;6168238;23;20415;-89
2023/05/16 03:58:54;;;;;;;19.17;2.45;;;;;;;;;;6193791;23;20447;-88
2023/05/16 04:01:20;;;;;;;18.90;2.40;;;;;;;;;;6190529;23;20008;-88
2023/05/16 04:03:46;;;;;;;6.72;2.17;;;;;;;;;;6194065;23;20054;-89
2023/05/16 04:06:12;;;;;;;13.43;2.17;;;;;;;;;;6218074;23;20394;-88
2023/05/16 04:08:39;;;;;;;17.15;2.08;;;;;;;;;;6193991;23;20016;-89
2023/05/16 04:11:07;;;;;;;14.48;3.30;;;;;;;;;;6191609;23;20000;-89
2023/05/16 04:13:33;;;;;;;14.43;2.47;;;;;;;;;;6168634;23;20017;-88
2023/05/16 04:15:59;;;;;;;14.70;3.17;;;;;;;;;;6169981;23;20073;-89
2023/05/16 04:18:29;;;;;;;13.02;2.08;;;;;;;;;;6169143;23;20514;-89
2023/05/16 04:20:55;;;;;;;18.50;2.20;;;;;;;;;;6192269;23;20016;-90
2023/05/16 04:23:21;;;;;;;17.52;2.28;;;;;;;;;;6168482;23;20012;-88
2023/05/16 04:25:47;;;;;;;17.58;2.53;;;;;;;;;;6195182;23;20435;-89
2023/05/16 04:28:14;;;;;;;13.05;1.90;;;;;;;;;;6169423;23;20543;-88
2023/05/16 04:30:46;;;;;;;14.57;2.10;;;;;;;;;;6194650;23;20347;-88
2023/05/16 04:33:12;;;;;;;12.02;2.40;;;;;;;;;;6171266;23;20032;-88
2023/05/16 04:35:39;;;;;;;12.35;2.35;;;;;;;;;;6221519;23;20009;-89
2023/05/16 04:38:07;;;;;;;13.10;2.17;;;;;;;;;;6221559;23;20017;-89
2023/05/16 04:40:34;;;;;;;16.02;2.72;;;;;;;;;;6196559;23;20005;-88
2023/05/16 04:43:00;;;;;;;13.18;2.15;;;;;;;;;;6171280;23;20004;-88
2023/05/16 04:45:26;;;;;;;14.23;2.00;;;;;;;;;;6195065;23;20013;-88
2023/05/16 04:47:52;;;;;;;14.80;2.70;;;;;;;;;;6170998;23;20005;-88
2023/05/16 04:50:18;;;;;;;11.43;2.17;;;;;;;;;;6174350;22;20024;-89
2023/05/16 04:52:46;;;;;;;21.10;6.38;;;;;;;;;;6195966;23;20072;-88
2023/05/16 04:55:12;;;;;;;11.52;2.53;;;;;;;;;;6170857;23;20019;-89
2023/05/16 04:57:39;;;;;;;16.20;2.10;;;;;;;;;;6194948;23;20087;-88
2023/05/16 05:00:10;;;;;;;14.65;3.42;;;;;;;;;;6193734;23;20080;-88
2023/05/16 05:02:37;;;;;;;12.95;2.10;;;;;;;;;;6194752;23;20431;-88
2023/05/16 05:05:04;;;;;;;13.40;2.13;;;;;;;;;;6193342;23;20167;-89
2023/05/16 05:07:31;;;;;;;15.05;2.33;;;;;;;;;;6193460;23;20019;-88
2023/05/16 05:09:59;;;;;;;9.15;1.80;;;;;;;;;;6192532;23;20279;-88
2023/05/16 05:12:26;;;;;;;22.88;2.53;;;;;;;;;;6167387;23;20008;-91
2023/05/16 05:14:52;;;;;;;11.38;1.65;;;;;;;;;;6192551;23;20008;-88
2023/05/16 05:17:19;;;;;;;9.07;1.70;;;;;;;;;;6168110;23;20016;-90
2023/05/16 05:19:47;;;;;;;15.75;2.30;;;;;;;;;;6193325;23;20004;-88
2023/05/16 05:22:13;;;;;;;7.93;1.60;;;;;;;;;;6168871;23;20038;-87
2023/05/16 05:24:39;;;;;;;15.13;2.40;;;;;;;;;;6166586;23;20393;-87
2023/05/16 05:27:08;;;;;;;7.78;2.05;;;;;;;;;;6168022;23;20019;-87
2023/05/16 05:29:37;;;;;;;8.50;2.10;;;;;;;;;;6165401;23;20016;-87
2023/05/16 05:32:04;;;;;;;8.73;2.05;;;;;;;;;;6191564;23;20019;-89
2023/05/16 05:34:30;;;;;;;17.83;2.10;;;;;;;;;;6221546;23;20000;-88
2023/05/16 05:36:56;;;;;;;10.30;2.08;;;;;;;;;;6170021;23;20431;-89
2023/05/16 05:39:24;;;;;;;18.98;1.90;;;;;;;;;;6195018;23;20036;-88
2023/05/16 05:41:51;;;;;;;8.88;1.52;;;;;;;;;;6195219;23;20043;-89
2023/05/16 05:44:17;;;;;;;12.60;1.42;;;;;;;;;;6170559;23;20636;-89
2023/05/16 05:46:43;;;;;;;8.48;1.77;;;;;;;;;;6195563;23;20071;-90
2023/05/16 05:49:12;;;;;;;9.00;1.33;;;;;;;;;;6169494;23;20043;-89
2023/05/16 05:51:39;;;;;;;20.35;1.88;;;;;;;;;;6172158;22;20529;-89
2023/05/16 05:54:08;;;;;;;18.10;1.88;;;;;;;;;;6192812;23;20060;-89
2023/05/16 05:56:35;;;;;;;11.43;2.40;;;;;;;;;;6167164;23;20009;-89
2023/05/16 05:59:01;;;;;;;9.88;2.33;;;;;;;;;;6194762;23;20035;-88
2023/05/16 06:01:27;;;;;;;7.55;1.60;;;;;;;;;;6192922;23;20474;-89
2023/05/16 06:03:53;;;;;;;5.63;1.25;;;;;;;;;;6194229;23;20469;-88
2023/05/16 06:06:23;;;;;;;16.63;2.03;;;;;;;;;;6193011;23;20019;-88
2023/05/16 06:08:49;;;;;;;13.07;1.80;;;;;;;;;;6169007;23;20016;-89
2023/05/16 06:11:18;;;;;;;14.23;1.85;;;;;;;;;;6192421;23;20378;-89
2023/05/16 06:13:44;;;;;;;9.52;1.80;;;;;;;;;;6193011;23;20001;-88
2023/05/16 06:16:10;;;;;;;11.27;1.98;;;;;;;;;;6192021;23;20477;-88
2023/05/16 06:18:37;;;;;;;5.38;1.20;;;;;;;;;;6167502;23;20008;-88
2023/05/16 06:21:03;;;;;;;12.95;2.28;;;;;;;;;;6166000;23;20013;-87
2023/05/16 06:23:29;;;;;;;6.50;0.55;;;;;;;;;;6191458;23;20197;-87
2023/05/16 06:26:01;;;;;;;16.23;1.80;;;;;;;;;;6192030;23;20087;-88
2023/05/16 06:28:34;;;;;;;9.55;1.52;;;;;;;;;;6191156;23;20047;-88
2023/05/16 06:31:00;;;;;;;7.60;1.35;;;;;;;;;;6190239;23;20027;-88
2023/05/16 06:33:26;;;;;;;7.35;1.95;;;;;;;;;;6190388;23;20032;-88
2023/05/16 06:35:59;;;;;;;4.57;0.90;;;;;;;;;;6168701;23;20063;-88
2023/05/16 06:38:27;;;;;;;6.88;1.83;;;;;;;;;;6167197;23;20180;-88
2023/05/16 06:40:54;;;;;;;8.07;1.58;;;;;;;;;;6191081;23;20012;-88
2023/05/16 06:43:20;;;;;;;6.70;1.70;;;;;;;;;;6189089;23;20427;-88
2023/05/16 06:45:49;;;;;;;15.52;2.05;;;;;;;;;;6168033;23;20023;-88
2023/05/16 06:48:18;;;;;;;3.88;1.50;;;;;;;;;;6192320;23;20012;-87
2023/05/16 06:51:04;;;;;;;6.22;1.50;;;;;;;;;;6229622;22;20386;-89
2023/05/16 06:53:37;;;;;;;7.07;1.50;;;;;;;;;;6200853;23;20013;-88
2023/05/16 06:56:03;;;;;;;4.05;1.08;;;;;;;;;;6197249;23;20008;-88
2023/05/16 06:58:29;;;;;;;5.78;1.50;;;;;;;;;;6197356;23;20524;-88
2023/05/16 07:00:56;;;;;;;8.25;1.60;;;;;;;;;;6197565;23;20008;-88
2023/05/16 07:03:22;;;;;;;10.52;1.75;;;;;;;;;;6222475;23;20004;-88
2023/05/16 07:05:49;;;;;;;12.10;1.60;;;;;;;;;;6222365;23;20008;-88
2023/05/16 07:08:16;;;;;;;11.02;1.30;;;;;;;;;;6221548;23;20015;-88
2023/05/16 07:10:42;;;;;;;5.63;1.52;;;;;;;;;;6193646;23;20060;-87
2023/05/16 07:13:08;;;;;;;4.72;1.60;;;;;;;;;;6223174;23;20028;-88
2023/05/16 07:15:37;;;;;;;7.97;1.33;;;;;;;;;;6220953;23;20004;-89
2023/05/16 07:18:07;;;;;;;4.57;1.30;;;;;;;;;;6220823;23;20027;-89
2023/05/16 07:20:40;;;;;;;11.63;1.48;;;;;;;;;;6221707;23;20016;-90
2023/05/16 07:23:07;;;;;;;7.68;1.90;;;;;;;;;;6196385;23;20039;-89
2023/05/16 07:25:36;;;;;;;8.35;1.65;;;;;;;;;;6222386;23;20422;-89
2023/05/16 07:28:02;;;;;;;12.35;1.88;;;;;;;;;;6198110;23;20086;-89
2023/05/16 07:30:29;;;;;;;12.65;1.70;;;;;;;;;;6198342;23;20004;-90
2023/05/16 07:32:55;;;;;;;12.48;2.03;;;;;;;;;;6196704;23;20004;-89
2023/05/16 07:35:21;;;;;;;26.55;2.33;;;;;;;;;;6220266;23;20008;-90
2023/05/16 07:37:48;;;;;;;17.70;1.98;;;;;;;;;;6198256;23;20023;-90
2023/05/16 07:40:14;;;;;;;25.48;2.30;;;;;;;;;;6196383;23;20099;-89
2023/05/16 07:42:40;;;;;;;11.80;1.85;;;;;;;;;;6198864;23;20012;-89
2023/05/16 07:45:11;;;;;;;12.45;1.90;;;;;;;;;;6198505;23;20008;-90
2023/05/16 07:47:37;;;;;;;9.38;2.70;;;;;;;;;;6224334;23;20018;-89
2023/05/16 07:50:06;;;;;;;18.25;1.88;;;;;;;;;;6223513;23;20028;-88
2023/05/16 07:52:40;;;;;;;15.45;2.65;;;;;;;;;;6198891;22;20020;-89
2023/05/16 07:55:10;;;;;;;5.80;1.40;;;;;;;;;;6198884;23;20008;-89
2023/05/16 07:57:39;;;;;;;8.02;1.50;;;;;;;;;;6198827;23;20012;-90
2023/05/16 08:00:05;;;;;;;9.48;2.35;;;;;;;;;;6222665;23;20160;-89
2023/05/16 08:02:32;;;;;;;13.48;1.83;;;;;;;;;;6199312;23;20009;-89
2023/05/16 08:07:47;;;;;;;6.20;1.50;;;;;;;;;;6216512;23;20000;-91
2023/05/16 08:10:13;;;;;;;11.52;1.77;;;;;;;;;;6223001;23;20004;-90
2023/05/16 08:12:40;;;;;;;7.53;1.75;;;;;;;;;;6222959;23;20007;-90
2023/05/16 08:15:06;;;;;;;7.95;1.40;;;;;;;;;;6221465;23;20015;-90
2023/05/16 08:17:38;;;;;;;8.65;1.50;;;;;;;;;;6197185;23;20340;-89
2023/05/16 08:20:08;;;;;;;6.38;1.15;;;;;;;;;;6197785;23;20015;-90
2023/05/16 08:22:42;;;;;;;5.47;1.10;;;;;;;;;;6160684;23;20015;-90
2023/05/16 08:25:09;;;;;;;3.35;1.00;;;;;;;;;;6179704;23;20145;-90
2023/05/16 08:27:35;;;;;;;3.63;1.15;;;;;;;;;;6185330;23;20013;-90
2023/05/16 08:30:06;;;;;;;6.10;1.52;;;;;;;;;;6134757;23;20048;-89
2023/05/16 08:32:39;;;;;;;2.83;1.25;;;;;;;;;;6136333;23;20220;-89
2023/05/16 08:35:06;;;;;;;9.40;1.58;;;;;;;;;;6160007;23;20009;-90
2023/05/16 08:37:33;;;;;;;5.32;2.13;;;;;;;;;;6158800;23;20017;-89
2023/05/16 08:40:04;;;;;;;6.25;1.65;;;;;;;;;;6158656;23;20009;-90
2023/05/16 08:42:31;;;;;;;8.70;1.92;;;;;;;;;;6158945;23;20079;-90
2023/05/16 08:45:00;;;;;;;7.90;1.52;;;;;;;;;;6157671;23;20442;-90
2023/05/16 08:47:26;;;;;;;11.15;1.08;;;;;;;;;;6132950;23;20440;-90
2023/05/16 08:49:54;;;;;;;6.47;1.67;;;;;;;;;;6154850;23;20120;-90
2023/05/16 08:52:22;;;;;;;10.82;1.70;;;;;;;;;;6143947;22;20347;-92
2023/05/16 08:55:23;;;;;;;8.63;1.65;;;;;;;;;;6165305;23;20035;-92
2023/05/16 08:57:50;;;;;;;6.22;1.45;;;;;;;;;;6214659;23;20447;-93
2023/05/16 09:00:26;;;;;;;14.73;2.30;;;;;;;;;;6188515;23;20001;-92
2023/05/16 09:02:56;;;;;;;16.73;2.00;;;;;;;;;;6187846;23;20012;-93
2023/05/16 09:05:30;;;;;;;10.82;1.88;;;;;;;;;;6187547;23;20005;-90
2023/05/16 09:07:57;;;;;;;13.55;1.75;;;;;;;;;;6188504;23;20015;-93
2023/05/16 09:10:23;;;;;;;6.32;1.73;;;;;;;;;;6163372;23;20506;-92
2023/05/16 09:15:44;;;;;;;9.65;2.15;;;;;;;;;;6210977;23;20048;-88
2023/05/16 09:18:25;;;;;;;5.60;1.65;;;;;;;;;;6186866;23;20504;-90
2023/05/16 09:20:57;;;;;;;5.47;1.48;;;;;;;;;;6187148;23;20015;-89
2023/05/16 09:23:35;;;;;;;6.40;1.42;;;;;;;;;;6183917;23;20086;-90
2023/05/16 09:26:18;;;;;;;11.90;1.55;;;;;;;;;;6159409;23;20028;-92
2023/05/16 09:28:47;;;;;;;10.35;1.92;;;;;;;;;;6159190;23;20013;-92
2023/05/16 09:31:25;;;;;;;6.88;1.20;;;;;;;;;;6157243;23;20020;-91
2023/05/16 09:33:55;;;;;;;11.70;1.88;;;;;;;;;;6183987;23;20005;-91
2023/05/16 09:36:25;;;;;;;5.35;1.25;;;;;;;;;;6183837;23;20008;-92
2023/05/16 09:38:54;;;;;;;12.38;1.42;;;;;;;;;;6211595;23;20001;-91
2023/05/16 09:41:23;;;;;;;6.00;1.50;;;;;;;;;;6184985;23;20367;-92
2023/05/16 09:43:52;;;;;;;15.70;2.00;;;;;;;;;;6187547;23;20402;-89
2023/05/16 09:46:26;;;;;;;5.03;1.67;;;;;;;;;;6188128;23;20080;-90
2023/05/16 09:48:55;;;;;;;5.93;2.20;;;;;;;;;;6190933;23;20013;-90
2023/05/16 09:51:21;;;;;;;9.88;1.80;;;;;;;;;;6193615;22;20012;-90
2023/05/16 09:53:47;;;;;;;15.90;2.55;;;;;;;;;;6195930;23;20017;-90
2023/05/16 09:56:36;;;;;;;;;;;;;;;;;;;;;
2023/05/16 09:59:10;;;;;;;8.40;1.77;;;;;;;;;;6247695;23;20016;-90
2023/05/16 10:01:36;;;;;;;3.60;1.20;;;;;;;;;;6220193;23;20039;-89
2023/05/16 10:04:03;;;;;;;9.35;1.55;;;;;;;;;;6194699;23;20016;-90
2023/05/16 10:06:32;;;;;;;14.80;1.88;;;;;;;;;;6195450;23;20023;-90
2023/05/16 10:08:59;;;;;;;13.40;2.28;;;;;;;;;;6218248;23;20016;-90
2023/05/16 10:11:25;;;;;;;7.50;1.75;;;;;;;;;;6192964;23;20489;-90
2023/05/16 10:14:01;;;;;;;6.15;2.28;;;;;;;;;;6193298;23;20008;-90
2023/05/16 10:16:30;;;;;;;8.02;1.48;;;;;;;;;;6192145;23;20032;-91
2023/05/16 10:19:00;;;;;;;6.55;1.50;;;;;;;;;;6216925;23;20386;-90
2023/05/16 10:22:01;;;;;;;11.43;1.65;;;;;;;;;;6221558;23;20249;-91
2023/05/16 10:24:36;;;;;;;8.23;1.27;;;;;;;;;;6243165;23;20149;-91
2023/05/16 10:27:11;;;;;;;5.25;1.50;;;;;;;;;;6217647;23;20008;-90
2023/05/16 10:29:37;;;;;;;7.90;1.40;;;;;;;;;;6190206;23;20275;-91
2023/05/16 10:32:05;;;;;;;9.63;1.77;;;;;;;;;;6216122;23;20066;-91
2023/05/16 10:34:33;;;;;;;3.70;1.45;;;;;;;;;;6240832;23;20008;-89
2023/05/16 10:36:59;;;;;;;4.07;1.25;;;;;;;;;;6215595;23;20032;-90
2023/05/16 10:39:30;;;;;;;6.60;1.60;;;;;;;;;;6190728;23;20407;-90
2023/05/16 10:42:03;;;;;;;6.03;1.25;;;;;;;;;;6194945;23;20012;-91
2023/05/16 10:44:35;;;;;;;5.25;1.50;;;;;;;;;;6215839;23;20012;-90
2023/05/16 10:47:03;;;;;;;15.38;1.77;;;;;;;;;;6217393;23;20091;-91
2023/05/16 10:49:30;;;;;;;8.73;2.00;;;;;;;;;;6217576;23;20031;-90
2023/05/16 10:52:24;;;;;;;4.95;1.80;;;;;;;;;;6219611;22;20012;-90
2023/05/16 10:54:55;;;;;;;11.50;2.20;;;;;;;;;;6215708;23;20018;-90
2023/05/16 10:57:27;;;;;;;9.27;1.70;;;;;;;;;;6195240;23;20015;-91
2023/05/16 11:00:00;;;;;;;8.00;1.60;;;;;;;;;;6195242;23;20012;-93
2023/05/16 11:02:40;;;;;;;9.70;1.52;;;;;;;;;;6221210;23;20039;-92
2023/05/16 11:05:17;;;;;;;8.68;1.48;;;;;;;;;;6218076;23;20036;-92
2023/05/16 11:08:04;;;;;;;14.95;2.10;;;;;;;;;;6219560;23;20011;-92
2023/05/16 11:10:31;;;;;;;6.45;1.38;;;;;;;;;;6244884;23;20248;-90
2023/05/16 11:13:02;;;;;;;8.07;2.55;;;;;;;;;;6195159;23;20062;-91
2023/05/16 11:15:34;;;;;;;15.63;1.75;;;;;;;;;;6195930;23;20015;-90
2023/05/16 11:18:13;;;;;;;8.05;1.55;;;;;;;;;;6219828;23;20457;-89
2023/05/16 11:20:40;;;;;;;8.93;1.70;;;;;;;;;;6247068;23;20004;-91
2023/05/16 11:23:22;;;;;;;3.80;1.48;;;;;;;;;;6219652;23;20010;-91
2023/05/16 11:26:03;;;;;;;5.32;1.65;;;;;;;;;;6193944;23;20115;-91
2023/05/16 11:28:35;;;;;;;5.68;1.63;;;;;;;;;;6246612;23;19997;-90
2023/05/16 11:31:07;;;;;;;5.35;1.60;;;;;;;;;;6219028;23;20040;-91
2023/05/16 11:33:34;;;;;;;5.80;1.65;;;;;;;;;;6219701;23;20060;-92
2023/05/16 11:36:12;;;;;;;7.88;1.98;;;;;;;;;;6193636;23;20034;-92
2023/05/16 11:38:47;;;;;;;12.77;3.30;;;;;;;;;;6220770;23;20007;-94
2023/05/16 11:41:20;;;;;;;5.90;1.50;;;;;;;;;;6218305;23;20659;-92
2023/05/16 11:43:46;;;;;;;6.53;1.60;;;;;;;;;;6193770;23;20015;-92
2023/05/16 11:46:13;;;;;;;10.00;0.95;;;;;;;;;;6194294;23;20036;-91
2023/05/16 11:48:50;;;;;;;7.38;2.08;;;;;;;;;;6220532;23;20012;-92
2023/05/16 11:51:19;;;;;;;8.02;2.28;;;;;;;;;;6217913;23;20008;-92
2023/05/16 11:53:58;;;;;;;5.85;1.38;;;;;;;;;;6205389;22;20103;-92
2023/05/16 11:56:37;;;;;;;14.65;2.20;;;;;;;;;;6192905;23;20036;-92
2023/05/16 11:59:04;;;;;;;7.65;1.98;;;;;;;;;;6192085;23;20244;-88
2023/05/16 12:01:43;;;;;;;8.73;1.85;;;;;;;;;;6187985;23;20012;-92
2023/05/16 12:04:12;;;;;;;10.40;2.35;;;;;;;;;;6166618;23;20019;-93
2023/05/16 12:06:42;;;;;;;10.55;2.72;;;;;;;;;;6191028;23;20008;-91
2023/05/16 12:09:23;;;;;;;8.00;2.00;;;;;;;;;;6216961;23;20710;-93
2023/05/16 12:11:52;;;;;;;9.23;2.10;;;;;;;;;;6187378;23;20458;-93
2023/05/16 12:14:21;;;;;;;8.90;2.03;;;;;;;;;;6215807;23;20000;-93
2023/05/16 12:17:09;;;;;;;10.32;2.60;;;;;;;;;;6162011;23;20047;-92
2023/05/16 12:19:48;;;;;;;6.05;2.00;;;;;;;;;;6186340;23;20347;-93
2023/05/16 12:22:22;;;;;;;8.38;2.25;;;;;;;;;;6183661;23;20028;-92
2023/05/16 12:24:49;;;;;;;7.80;2.22;;;;;;;;;;6187886;23;20509;-92
2023/05/16 12:27:30;;;;;;;7.45;2.30;;;;;;;;;;6187811;23;20013;-93
2023/05/16 12:30:01;;;;;;;9.30;2.33;;;;;;;;;;6185451;23;20333;-92
2023/05/16 12:32:30;;;;;;;12.77;2.72;;;;;;;;;;6164210;23;20008;-92
2023/05/16 12:34:59;;;;;;;6.38;2.13;;;;;;;;;;6190009;23;20005;-93
2023/05/16 12:37:50;;;;;;;8.32;2.20;;;;;;;;;;6166494;23;20125;-93
2023/05/16 12:40:19;;;;;;;17.42;2.03;;;;;;;;;;6199534;23;20011;-91
2023/05/16 12:42:51;;;;;;;7.20;2.33;;;;;;;;;;6187277;23;20070;-92
2023/05/16 12:45:23;;;;;;;10.13;2.55;;;;;;;;;;6189451;23;20347;-91
2023/05/16 12:47:50;;;;;;;6.85;2.15;;;;;;;;;;6188829;23;20043;-91
2023/05/16 12:50:28;;;;;;;8.88;3.00;;;;;;;;;;6189722;23;20008;-91
2023/05/16 12:53:06;;;;;;;14.82;2.85;;;;;;;;;;6174311;22;20028;-91
2023/05/16 12:55:34;;;;;;;6.15;2.50;;;;;;;;;;6187974;23;20005;-91
2023/05/16 12:58:01;;;;;;;8.43;2.33;;;;;;;;;;6165397;23;20020;-91
2023/05/16 13:00:36;;;;;;;7.65;2.20;;;;;;;;;;6164244;23;20096;-91
2023/05/16 13:03:17;;;;;;;6.80;2.63;;;;;;;;;;6191349;23;20281;-91
2023/05/16 13:05:44;;;;;;;7.18;2.92;;;;;;;;;;6163776;23;20012;-92
2023/05/16 13:08:14;;;;;;;7.38;3.17;;;;;;;;;;6189210;23;20008;-91
2023/05/16 13:10:40;;;;;;;12.48;3.22;;;;;;;;;;6165419;23;20004;-91
2023/05/16 13:13:10;;;;;;;9.68;2.95;;;;;;;;;;6164011;23;20012;-89
2023/05/16 13:15:41;;;;;;;7.53;3.10;;;;;;;;;;6164602;23;20122;-92
2023/05/16 13:18:08;;;;;;;10.02;3.40;;;;;;;;;;6161202;23;20391;-90
2023/05/16 13:20:37;;;;;;;7.57;3.00;;;;;;;;;;6187082;23;20008;-91
2023/05/16 13:23:06;;;;;;;6.75;2.35;;;;;;;;;;6160903;23;20005;-91
2023/05/16 13:25:33;;;;;;;8.88;2.58;;;;;;;;;;6187339;23;20004;-91
2023/05/16 13:28:01;;;;;;;6.72;2.10;;;;;;;;;;6184098;23;20016;-91
2023/05/16 13:30:31;;;;;;;6.05;2.42;;;;;;;;;;6186093;23;20094;-90
2023/05/16 13:33:03;;;;;;;12.82;2.83;;;;;;;;;;6162611;23;20020;-91
2023/05/16 13:35:29;;;;;;;5.22;2.28;;;;;;;;;;6182423;23;20415;-92
2023/05/16 13:37:55;;;;;;;5.55;2.55;;;;;;;;;;6187462;23;20012;-90
2023/05/16 13:40:24;;;;;;;5.97;2.38;;;;;;;;;;6162892;23;20005;-92
2023/05/16 13:42:50;;;;;;;5.93;2.47;;;;;;;;;;6162418;23;20028;-91
2023/05/16 13:45:20;;;;;;;9.00;2.25;;;;;;;;;;6163280;23;20043;-92
2023/05/16 13:47:58;;;;;;;5.22;2.95;;;;;;;;;;6213483;23;20360;-91
2023/05/16 13:50:24;;;;;;;4.82;2.65;;;;;;;;;;6187374;23;20025;-91
2023/05/16 13:52:55;;;;;;;4.95;2.60;;;;;;;;;;6167314;22;20016;-91
2023/05/16 13:55:21;;;;;;;8.23;3.05;;;;;;;;;;6193299;23;20043;-91
2023/05/16 13:57:47;;;;;;;10.23;2.83;;;;;;;;;;6217737;23;20011;-91
2023/05/16 14:00:14;;;;;;;5.10;2.80;;;;;;;;;;6192308;23;20526;-91
2023/05/16 14:02:40;;;;;;;13.95;3.85;;;;;;;;;;6191538;23;20028;-91
2023/05/16 14:05:07;;;;;;;17.30;3.22;;;;;;;;;;6216167;23;20556;-89
2023/05/16 14:07:39;;;;;;;8.77;3.03;;;;;;;;;;6215700;23;20111;-92
2023/05/16 14:10:05;;;;;;;10.18;2.50;;;;;;;;;;6193144;23;20016;-91
2023/05/16 14:12:32;;;;;;;6.45;2.83;;;;;;;;;;6221689;23;20427;-91
2023/05/16 14:14:58;;;;;;;5.07;2.33;;;;;;;;;;6195382;23;20008;-91
2023/05/16 14:17:28;;;;;;;8.40;2.90;;;;;;;;;;6196804;23;20451;-90
2023/05/16 14:20:00;;;;;;;9.48;2.30;;;;;;;;;;6220565;23;20008;-91
2023/05/16 14:22:27;;;;;;;4.30;2.35;;;;;;;;;;6196513;23;20301;-91
2023/05/16 14:24:53;;;;;;;6.45;2.20;;;;;;;;;;6222129;23;20401;-91
2023/05/16 14:27:19;;;;;;;6.45;2.92;;;;;;;;;;6249635;23;20046;-91
2023/05/16 14:29:47;;;;;;;8.55;3.08;;;;;;;;;;6220741;23;20008;-91
2023/05/16 14:32:13;;;;;;;11.43;2.42;;;;;;;;;;6196143;23;20039;-90
2023/05/16 14:34:40;;;;;;;7.88;2.13;;;;;;;;;;6220275;23;20008;-90
2023/05/16 14:37:06;;;;;;;7.65;2.25;;;;;;;;;;6221121;23;20004;-91
2023/05/16 14:39:34;;;;;;;5.35;2.38;;;;;;;;;;6222095;23;20008;-91
2023/05/16 14:42:01;;;;;;;6.82;2.03;;;;;;;;;;6220067;23;20039;-91
2023/05/16 14:44:27;;;;;;;5.82;2.33;;;;;;;;;;6195039;23;20016;-88
2023/05/16 14:46:53;;;;;;;5.72;2.05;;;;;;;;;;6195525;23;20505;-89
2023/05/16 14:49:19;;;;;;;10.25;2.95;;;;;;;;;;6222524;23;20000;-91
2023/05/16 14:51:48;;;;;;;9.45;2.25;;;;;;;;;;6195606;23;20054;-91
2023/05/16 14:54:20;;;;;;;5.43;1.80;;;;;;;;;;6203537;22;20046;-92